createdAt,value
2022-10-05T00:01:52.865Z,3.85
2022-10-05T00:04:22.878Z,4.68
2022-10-05T00:07:29.803Z,4.97
2022-10-05T00:09:59.963Z,4.50
2022-10-05T00:12:29.914Z,4.40
2022-10-05T00:15:01.228Z,3.97
2022-10-05T00:17:30.451Z,3.90
2022-10-05T00:19:57.643Z,4.60
2022-10-05T00:22:33.069Z,4.13
2022-10-05T00:25:03.140Z,4.13
2022-10-05T00:27:37.552Z,4.07
2022-10-05T00:30:17.150Z,4.38
2022-10-05T00:32:45.144Z,4.35
2022-10-05T00:35:13.745Z,4.13
2022-10-05T00:37:41.198Z,3.97
2022-10-05T00:40:29.215Z,4.40
2022-10-05T00:43:11.287Z,4.78
2022-10-05T00:45:46.059Z,3.88
2022-10-05T00:48:32.607Z,3.80
2022-10-05T00:51:24.031Z,4.15
2022-10-05T00:54:34.185Z,3.80
2022-10-05T00:57:25.165Z,3.72
2022-10-05T01:00:24.130Z,3.90
2022-10-05T01:02:57.983Z,3.60
2022-10-05T01:05:43.413Z,3.58
2022-10-05T01:08:32.039Z,3.80
2022-10-05T01:11:20.506Z,3.83
2022-10-05T01:13:59.856Z,3.40
2022-10-05T01:16:44.553Z,4.47
2022-10-05T01:19:20.774Z,3.90
2022-10-05T01:22:08.161Z,3.90
2022-10-05T01:25:07.799Z,3.80
2022-10-05T01:27:45.706Z,4.30
2022-10-05T01:30:15.743Z,3.95
2022-10-05T01:33:01.692Z,3.78
2022-10-05T01:35:45.972Z,3.47
2022-10-05T01:38:52.291Z,3.25
2022-10-05T01:41:40.201Z,3.33
2022-10-05T01:44:15.487Z,3.55
2022-10-05T01:46:46.176Z,3.75
2022-10-05T01:49:35.017Z,3.28
2022-10-05T01:52:13.204Z,3.47
2022-10-05T01:55:09.792Z,3.90
2022-10-05T01:58:01.136Z,4.22
2022-10-05T02:00:29.739Z,3.20
2022-10-05T02:03:25.215Z,3.60
2022-10-05T02:06:00.468Z,3.30
2022-10-05T02:08:36.950Z,3.17
2022-10-05T02:11:07.888Z,3.70
2022-10-05T02:13:46.903Z,3.63
2022-10-05T02:16:24.949Z,3.53
2022-10-05T02:19:01.572Z,3.33
2022-10-05T02:21:33.606Z,3.50
2022-10-05T02:24:11.634Z,3.65
2022-10-05T02:26:40.542Z,3.47
2022-10-05T02:29:11.606Z,2.95
2022-10-05T02:31:46.160Z,3.47
2022-10-05T02:34:25.691Z,3.55
2022-10-05T02:37:34.453Z,3.38
2022-10-05T02:40:08.885Z,3.50
2022-10-05T02:43:08.117Z,3.55
2022-10-05T02:45:51.299Z,3.63
2022-10-05T02:48:33.753Z,3.40
2022-10-05T02:51:19.332Z,3.30
2022-10-05T02:53:47.103Z,2.85
2022-10-05T02:56:14.046Z,3.03
2022-10-05T02:59:07.281Z,3.67
2022-10-05T03:01:46.947Z,3.28
2022-10-05T03:04:46.874Z,3.35
2022-10-05T03:07:23.829Z,3.25
2022-10-05T03:10:02.668Z,3.30
2022-10-05T03:13:01.788Z,3.30
2022-10-05T03:15:43.845Z,3.75
2022-10-05T03:18:16.847Z,3.20
2022-10-05T03:20:56.015Z,3.60
2022-10-05T03:23:44.831Z,3.17
2022-10-05T03:26:19.162Z,3.00
2022-10-05T03:29:03.234Z,2.97
2022-10-05T03:31:42.413Z,3.15
2022-10-05T03:34:26.452Z,4.80
2022-10-05T03:37:10.404Z,4.15
2022-10-05T03:40:01.512Z,4.35
2022-10-05T03:42:37.833Z,4.45
2022-10-05T03:45:23.368Z,4.68
2022-10-05T03:48:01.472Z,4.82
2022-10-05T03:50:37.022Z,3.83
2022-10-05T03:53:10.918Z,3.83
2022-10-05T03:55:47.245Z,3.90
2022-10-05T03:58:41.058Z,4.15
2022-10-05T04:01:18.818Z,4.00
2022-10-05T04:04:09.949Z,4.53
2022-10-05T04:06:45.840Z,3.90
2022-10-05T04:09:36.774Z,4.30
2022-10-05T04:12:35.989Z,4.05
2022-10-05T04:15:18.850Z,3.92
2022-10-05T04:17:52.064Z,4.25
2022-10-05T04:20:25.225Z,3.60
2022-10-05T04:23:19.407Z,4.28
2022-10-05T04:25:53.940Z,3.90
2022-10-05T04:28:32.184Z,3.53
2022-10-05T04:31:04.561Z,4.03
2022-10-05T04:33:32.981Z,4.18
2022-10-05T04:36:09.788Z,3.83
2022-10-05T04:38:55.972Z,3.25
2022-10-05T04:41:50.937Z,3.20
2022-10-05T04:44:33.251Z,3.42
2022-10-05T04:47:36.110Z,3.15
2022-10-05T04:50:34.675Z,2.38
2022-10-05T04:53:28.118Z,2.85
2022-10-05T04:56:07.079Z,2.72
2022-10-05T04:58:43.196Z,3.05
2022-10-05T05:01:20.913Z,2.92
2022-10-05T05:04:10.674Z,3.67
2022-10-05T05:07:07.208Z,3.25
2022-10-05T05:09:53.463Z,3.78
2022-10-05T05:13:06.752Z,3.47
2022-10-05T05:15:48.938Z,3.67
2022-10-05T05:18:31.412Z,5.32
2022-10-05T05:21:33.095Z,3.20
2022-10-05T05:24:38.586Z,3.63
2022-10-05T05:27:24.749Z,3.83
2022-10-05T05:30:12.806Z,3.42
2022-10-05T05:33:03.974Z,3.83
2022-10-05T05:35:57.468Z,3.45
2022-10-05T05:38:24.512Z,3.00
2022-10-05T05:41:09.663Z,2.65
2022-10-05T05:43:47.106Z,3.65
2022-10-05T05:46:44.698Z,3.47
2022-10-05T05:49:22.898Z,2.80
2022-10-05T05:51:58.227Z,2.92
2022-10-05T05:54:31.394Z,2.75
2022-10-05T05:57:09.083Z,2.50
2022-10-05T06:00:14.732Z,2.72
2022-10-05T06:03:04.472Z,2.67
2022-10-05T06:05:45.510Z,2.95
2022-10-05T06:08:19.875Z,2.45
2022-10-05T06:10:59.287Z,3.00
2022-10-05T06:13:34.378Z,3.20
2022-10-05T06:16:15.125Z,2.97
2022-10-05T06:18:57.508Z,4.00
2022-10-05T06:21:42.179Z,3.83
2022-10-05T06:24:25.572Z,3.25
2022-10-05T06:27:19.845Z,3.55
2022-10-05T06:29:58.140Z,3.90
2022-10-05T06:32:50.124Z,4.18
2022-10-05T06:35:49.403Z,4.30
2022-10-05T06:38:54.156Z,5.50
2022-10-05T06:41:24.173Z,3.90
2022-10-05T06:44:09.688Z,3.67
2022-10-05T06:47:00.129Z,3.38
2022-10-05T06:49:47.653Z,2.83
2022-10-05T06:52:49.128Z,3.38
2022-10-05T06:55:36.403Z,2.97
2022-10-05T06:58:31.865Z,3.15
2022-10-05T07:01:02.011Z,2.80
2022-10-05T07:03:47.683Z,2.47
2022-10-05T07:06:38.067Z,2.60
2022-10-05T07:09:18.503Z,2.65
2022-10-05T07:12:04.568Z,2.90
2022-10-05T07:14:46.095Z,3.08
2022-10-05T07:17:13.737Z,2.80
2022-10-05T07:19:55.941Z,3.08
2022-10-05T07:25:12.455Z,2.53
2022-10-05T07:27:59.046Z,2.30
2022-10-05T07:30:26.386Z,2.10
2022-10-05T07:33:09.257Z,2.67
2022-10-05T07:36:05.668Z,2.55
2022-10-05T07:38:49.018Z,2.97
2022-10-05T07:41:23.085Z,2.33
2022-10-05T07:44:12.610Z,3.28
2022-10-05T07:46:51.933Z,4.23
2022-10-05T07:49:31.656Z,3.00
2022-10-05T07:52:02.995Z,2.67
2022-10-05T07:55:01.992Z,2.33
2022-10-05T07:57:41.250Z,2.60
2022-10-05T08:00:43.285Z,2.90
2022-10-05T08:03:26.545Z,2.50
2022-10-05T08:05:54.271Z,3.33
2022-10-05T08:08:24.082Z,2.03
2022-10-05T08:11:10.303Z,2.28
2022-10-05T08:13:58.640Z,2.10
2022-10-05T08:16:30.860Z,2.30
2022-10-05T08:19:06.729Z,1.92
2022-10-05T08:21:43.282Z,2.15
2022-10-05T08:24:38.067Z,2.20
2022-10-05T08:27:34.131Z,2.55
2022-10-05T08:30:12.428Z,3.10
2022-10-05T08:33:01.171Z,2.30
2022-10-05T08:35:55.880Z,1.73
2022-10-05T08:38:31.718Z,1.80
2022-10-05T08:41:10.776Z,1.83
2022-10-05T08:43:59.449Z,3.67
2022-10-05T08:47:05.537Z,2.00
2022-10-05T08:49:35.546Z,2.03
2022-10-05T08:52:24.420Z,1.80
2022-10-05T08:55:09.682Z,1.75
2022-10-05T08:57:51.301Z,1.70
2022-10-05T09:00:23.520Z,1.60
2022-10-05T09:03:05.655Z,1.75
2022-10-05T09:06:04.052Z,1.67
2022-10-05T09:08:58.703Z,2.20
2022-10-05T09:11:38.950Z,2.05
2022-10-05T09:14:06.006Z,3.58
2022-10-05T09:16:48.597Z,3.30
2022-10-05T09:19:40.021Z,4.15
2022-10-05T09:22:32.673Z,2.20
2022-10-05T09:25:14.358Z,2.15
2022-10-05T09:27:53.746Z,2.13
2022-10-05T09:30:29.913Z,2.05
2022-10-05T09:33:26.020Z,2.92
2022-10-05T09:36:34.076Z,2.58
2022-10-05T09:39:13.176Z,2.00
2022-10-05T09:41:39.964Z,1.40
2022-10-05T09:44:56.420Z,1.13
2022-10-05T09:47:35.146Z,1.20
2022-10-05T09:50:23.503Z,1.83
2022-10-05T09:53:24.700Z,1.33
2022-10-05T09:56:50.429Z,1.33
2022-10-05T09:59:53.903Z,1.35
2022-10-05T10:02:42.362Z,1.60
2022-10-05T10:05:26.991Z,2.28
2022-10-05T10:08:12.659Z,2.25
2022-10-05T10:10:54.817Z,1.75
2022-10-05T10:13:46.237Z,1.50
2022-10-05T10:16:23.585Z,1.55
2022-10-05T10:19:03.072Z,1.40
2022-10-05T10:21:30.195Z,1.70
2022-10-05T10:24:23.781Z,1.20
2022-10-05T10:27:35.692Z,1.70
2022-10-05T10:30:08.449Z,2.10
2022-10-05T10:32:57.810Z,1.90
2022-10-05T10:35:27.650Z,1.85
2022-10-05T10:38:28.743Z,2.03
2022-10-05T10:41:04.545Z,1.83
2022-10-05T10:43:46.554Z,1.80
2022-10-05T10:48:50.046Z,1.88
2022-10-05T10:51:47.530Z,1.70
2022-10-05T10:54:15.045Z,1.60
2022-10-05T10:57:04.158Z,1.60
2022-10-05T10:59:41.653Z,1.45
2022-10-05T11:02:17.655Z,1.70
2022-10-05T11:05:09.293Z,1.70
2022-10-05T11:07:54.989Z,2.08
2022-10-05T11:10:34.192Z,2.15
2022-10-05T11:13:34.965Z,1.95
2022-10-05T11:16:28.210Z,1.23
2022-10-05T11:19:20.465Z,1.30
2022-10-05T11:22:05.586Z,1.52
2022-10-05T11:24:54.766Z,1.20
2022-10-05T11:27:37.311Z,1.52
2022-10-05T11:30:39.004Z,1.60
2022-10-05T11:33:53.509Z,1.60
2022-10-05T11:36:32.490Z,2.10
2022-10-05T11:39:23.307Z,1.50
2022-10-05T11:42:09.968Z,1.38
2022-10-05T11:45:11.843Z,1.45
2022-10-05T11:48:03.214Z,1.17
2022-10-05T11:50:39.705Z,1.40
2022-10-05T11:53:19.932Z,1.90
2022-10-05T11:55:57.734Z,1.58
2022-10-05T11:58:43.817Z,1.48
2022-10-05T12:01:27.787Z,1.25
2022-10-05T12:04:17.339Z,1.45
2022-10-05T12:06:58.837Z,1.52
2022-10-05T12:10:30.086Z,1.20
2022-10-05T12:13:19.459Z,1.38
2022-10-05T12:16:22.734Z,1.48
2022-10-05T12:18:56.229Z,1.55
2022-10-05T12:21:33.056Z,1.30
2022-10-05T12:24:14.190Z,1.30
2022-10-05T12:26:50.119Z,1.17
2022-10-05T12:29:43.126Z,1.10
2022-10-05T12:32:24.030Z,1.30
2022-10-05T12:35:01.880Z,1.10
2022-10-05T12:37:48.744Z,1.17
2022-10-05T12:40:35.843Z,1.35
2022-10-05T12:43:32.813Z,1.33
2022-10-05T12:46:24.336Z,1.25
2022-10-05T12:49:12.736Z,1.27
2022-10-05T12:52:00.933Z,2.05
2022-10-05T12:54:45.054Z,1.13
2022-10-05T12:57:17.967Z,1.40
2022-10-05T12:59:54.027Z,1.10
2022-10-05T13:02:51.086Z,0.95
2022-10-05T13:05:30.122Z,1.92
2022-10-05T13:08:12.899Z,1.15
2022-10-05T13:10:53.681Z,1.20
2022-10-05T13:13:36.066Z,1.50
2022-10-05T13:16:08.234Z,1.13
2022-10-05T13:18:58.879Z,1.92
2022-10-05T13:22:04.281Z,1.05
2022-10-05T13:24:59.384Z,1.08
2022-10-05T13:27:36.800Z,1.42
2022-10-05T13:30:06.648Z,1.23
2022-10-05T13:32:42.001Z,1.55
2022-10-05T13:35:40.274Z,1.27
2022-10-05T13:38:24.667Z,1.30
2022-10-05T13:41:17.665Z,1.30
2022-10-05T13:44:07.370Z,1.30
2022-10-05T13:46:48.943Z,1.50
2022-10-05T13:49:39.295Z,3.22
2022-10-05T13:52:25.400Z,2.90
2022-10-05T13:55:01.982Z,1.88
2022-10-05T13:57:29.926Z,1.42
2022-10-05T14:00:14.487Z,2.63
2022-10-05T14:02:45.306Z,0.88
2022-10-05T14:05:29.173Z,1.20
2022-10-05T14:08:02.283Z,1.00
2022-10-05T14:10:38.919Z,0.98
2022-10-05T14:13:27.371Z,0.82
2022-10-05T14:16:20.722Z,1.00
2022-10-05T14:18:56.617Z,0.95
2022-10-05T14:21:28.741Z,2.20
2022-10-05T14:23:58.730Z,1.10
2022-10-05T14:26:25.483Z,0.80
2022-10-05T14:29:14.106Z,1.10
2022-10-05T14:32:03.120Z,1.00
2022-10-05T14:34:42.073Z,1.77
2022-10-05T14:37:24.777Z,2.03
2022-10-05T14:39:59.192Z,1.35
2022-10-05T14:42:30.672Z,2.00
2022-10-05T14:45:20.861Z,3.05
2022-10-05T14:47:51.834Z,2.30
2022-10-05T14:50:26.125Z,1.35
2022-10-05T14:53:11.465Z,1.27
2022-10-05T14:56:06.343Z,0.93
2022-10-05T14:58:42.974Z,1.08
2022-10-05T15:01:16.851Z,1.00
2022-10-05T15:04:01.244Z,1.00
2022-10-05T15:06:41.706Z,0.73
2022-10-05T15:09:45.228Z,1.27
2022-10-05T15:12:19.427Z,3.78
2022-10-05T15:14:47.476Z,10.25
2022-10-05T15:17:20.291Z,8.25
2022-10-05T15:20:18.335Z,6.50
2022-10-05T15:23:00.432Z,3.88
2022-10-05T15:25:51.914Z,2.05
2022-10-05T15:28:41.279Z,1.67
2022-10-05T15:31:16.452Z,1.40
2022-10-05T15:33:53.674Z,2.55
2022-10-05T15:36:32.472Z,2.10
2022-10-05T15:39:00.604Z,1.85
2022-10-05T15:41:37.005Z,2.50
2022-10-05T15:44:26.075Z,2.13
2022-10-05T15:47:01.382Z,2.28
2022-10-05T15:49:38.924Z,7.35
2022-10-05T15:52:34.670Z,9.02
2022-10-05T15:55:16.137Z,7.47
2022-10-05T15:57:43.136Z,5.60
2022-10-05T16:00:22.037Z,5.40
2022-10-05T16:03:13.997Z,3.63
2022-10-05T16:08:54.203Z,2.90
2022-10-05T16:11:43.052Z,3.17
2022-10-05T16:14:28.808Z,3.15
2022-10-05T16:16:57.638Z,3.05
2022-10-05T16:20:00.916Z,3.63
2022-10-05T16:22:59.694Z,2.53
2022-10-05T16:25:47.541Z,2.65
2022-10-05T16:28:41.982Z,2.25
2022-10-05T16:31:19.094Z,2.80
2022-10-05T16:33:58.256Z,2.60
2022-10-05T16:36:59.630Z,12.25
2022-10-05T16:39:45.259Z,4.30
2022-10-05T16:42:18.151Z,2.95
2022-10-05T16:45:27.466Z,2.88
2022-10-05T16:48:15.209Z,2.50
2022-10-05T16:51:09.914Z,3.55
2022-10-05T16:53:51.003Z,3.72
2022-10-05T16:56:27.198Z,3.80
2022-10-05T16:58:56.638Z,2.83
2022-10-05T17:01:43.240Z,2.42
2022-10-05T17:04:31.903Z,2.45
2022-10-05T17:07:14.914Z,4.28
2022-10-05T17:09:56.920Z,3.15
2022-10-05T17:15:33.750Z,2.90
2022-10-05T17:18:27.523Z,3.78
2022-10-05T17:21:02.534Z,3.22
2022-10-05T17:23:51.851Z,3.13
2022-10-05T17:26:52.701Z,3.67
2022-10-05T17:29:24.011Z,3.92
2022-10-05T17:32:05.963Z,3.15
2022-10-05T17:37:28.150Z,2.20
2022-10-05T17:39:56.567Z,2.00
2022-10-05T17:42:26.678Z,1.63
2022-10-05T17:45:14.745Z,2.10
2022-10-05T17:48:01.538Z,1.95
2022-10-05T17:50:56.391Z,1.95
2022-10-05T17:53:53.369Z,1.67
2022-10-05T17:56:22.211Z,2.70
2022-10-05T17:58:55.082Z,2.05
2022-10-05T18:01:40.896Z,2.00
2022-10-05T18:04:14.151Z,2.67
2022-10-05T18:07:05.399Z,2.55
2022-10-05T18:09:37.542Z,2.45
2022-10-05T18:12:18.232Z,2.42
2022-10-05T18:15:06.576Z,2.55
2022-10-05T18:17:51.357Z,3.35
2022-10-05T18:20:24.239Z,4.45
2022-10-05T18:22:53.693Z,2.70
2022-10-05T18:25:34.071Z,2.08
2022-10-05T18:28:20.738Z,2.60
2022-10-05T18:31:06.326Z,3.03
2022-10-05T18:33:42.415Z,2.92
2022-10-05T18:36:44.560Z,2.55
2022-10-05T18:39:49.252Z,3.80
2022-10-05T18:42:27.508Z,3.38
2022-10-05T18:45:04.257Z,7.15
2022-10-05T18:47:46.689Z,9.48
2022-10-05T18:50:34.072Z,6.82
2022-10-05T18:53:16.665Z,6.40
2022-10-05T18:55:55.846Z,5.35
2022-10-05T18:58:35.205Z,6.03
2022-10-05T19:01:34.831Z,3.20
2022-10-05T19:04:14.041Z,8.40
2022-10-05T19:06:53.186Z,9.80
2022-10-05T19:09:32.013Z,5.78
2022-10-05T19:12:26.377Z,4.55
2022-10-05T19:15:07.010Z,4.25
2022-10-05T19:18:06.147Z,4.20
2022-10-05T19:20:47.144Z,3.70
2022-10-05T19:23:18.198Z,3.90
2022-10-05T19:25:53.160Z,4.18
2022-10-05T19:28:34.333Z,4.43
2022-10-05T19:31:20.566Z,3.85
2022-10-05T19:33:58.015Z,3.33
2022-10-05T19:36:34.069Z,2.70
2022-10-05T19:39:12.102Z,2.97
2022-10-05T19:41:42.082Z,2.67
2022-10-05T19:44:27.996Z,2.60
2022-10-05T19:46:58.118Z,2.38
2022-10-05T19:49:56.932Z,2.20
2022-10-05T19:52:47.527Z,2.53
2022-10-05T19:55:26.566Z,2.10
2022-10-05T19:57:57.774Z,2.33
2022-10-05T20:00:35.540Z,2.25
2022-10-05T20:03:23.522Z,2.33
2022-10-05T20:05:50.530Z,2.00
2022-10-05T20:08:19.723Z,2.25
2022-10-05T20:11:27.257Z,2.30
2022-10-05T20:13:54.939Z,2.20
2022-10-05T20:19:52.389Z,2.17
2022-10-05T20:22:34.382Z,2.40
2022-10-05T20:27:39.730Z,3.15
2022-10-05T20:30:09.245Z,2.45
2022-10-05T20:32:36.048Z,2.95
2022-10-05T20:35:03.658Z,2.95
2022-10-05T20:37:31.310Z,3.00
2022-10-05T20:39:58.721Z,3.55
2022-10-05T20:42:26.750Z,2.53
2022-10-05T20:44:56.902Z,2.65
2022-10-05T20:47:24.620Z,2.50
2022-10-05T20:49:53.441Z,2.30
2022-10-05T20:52:20.663Z,2.90
2022-10-05T20:54:48.016Z,2.50
2022-10-05T20:57:15.068Z,2.45
2022-10-05T20:59:41.839Z,2.60
2022-10-05T21:02:09.862Z,2.70
2022-10-05T21:04:41.461Z,2.60
2022-10-05T21:09:38.489Z,2.08
2022-10-05T21:12:05.593Z,2.78
2022-10-05T21:14:34.525Z,2.40
2022-10-05T21:17:02.193Z,2.10
2022-10-05T21:19:29.923Z,2.40
2022-10-05T21:21:59.677Z,2.20
2022-10-05T21:24:26.748Z,1.98
2022-10-05T21:26:56.794Z,2.45
2022-10-05T21:29:23.765Z,2.05
2022-10-05T21:31:51.170Z,2.08
2022-10-05T21:34:18.139Z,2.05
2022-10-05T21:36:45.195Z,2.50
2022-10-05T21:39:11.992Z,3.20
2022-10-05T21:41:38.879Z,3.90
2022-10-05T21:44:06.336Z,4.25
2022-10-05T21:46:35.936Z,3.40
2022-10-05T21:49:02.918Z,4.50
2022-10-05T21:51:29.935Z,4.35
2022-10-05T21:53:57.755Z,4.03
2022-10-05T21:56:29.440Z,3.60
2022-10-05T21:58:57.707Z,3.13
2022-10-05T22:01:24.618Z,3.22
2022-10-05T22:03:51.869Z,2.63
2022-10-05T22:06:18.771Z,2.65
2022-10-05T22:08:46.881Z,2.85
2022-10-05T22:11:16.870Z,2.53
2022-10-05T22:13:49.590Z,3.15
2022-10-05T22:16:19.148Z,3.08
2022-10-05T22:18:46.204Z,3.35
2022-10-05T22:21:14.092Z,2.67
2022-10-05T22:23:42.343Z,2.92
2022-10-05T22:26:11.555Z,3.28
2022-10-05T22:28:39.690Z,2.65
2022-10-05T22:31:09.559Z,2.58
2022-10-05T22:33:37.199Z,2.63
2022-10-05T22:36:05.585Z,2.45
2022-10-05T22:38:32.792Z,2.30
2022-10-05T22:40:59.659Z,2.55
2022-10-05T22:43:29.497Z,2.50
2022-10-05T22:45:56.819Z,1.80
2022-10-05T22:48:25.336Z,1.70
2022-10-05T22:50:52.527Z,2.20
2022-10-05T22:53:19.493Z,1.90
2022-10-05T22:55:47.752Z,2.15
2022-10-05T22:58:14.950Z,2.30
2022-10-05T23:00:57.696Z,1.77
2022-10-05T23:03:25.561Z,1.95
2022-10-05T23:06:04.315Z,2.20
2022-10-05T23:08:33.272Z,2.05
2022-10-05T23:11:23.647Z,2.28
2022-10-05T23:13:52.324Z,2.85
2022-10-05T23:16:21.987Z,2.00
2022-10-05T23:18:50.567Z,2.05
2022-10-05T23:21:19.634Z,2.50
2022-10-05T23:23:48.950Z,2.05
2022-10-05T23:26:17.822Z,2.25
2022-10-05T23:28:49.734Z,2.20
2022-10-05T23:31:19.429Z,2.28
2022-10-05T23:33:46.768Z,2.20
2022-10-05T23:36:17.775Z,1.85
2022-10-05T23:38:45.479Z,2.03
2022-10-05T23:41:13.290Z,2.28
2022-10-05T23:43:40.518Z,2.70
2022-10-05T23:46:09.567Z,2.45
2022-10-05T23:48:39.420Z,2.55
2022-10-05T23:51:08.484Z,2.20
2022-10-05T23:53:35.859Z,2.85
2022-10-05T23:56:03.165Z,3.15
2022-10-05T23:58:31.313Z,3.03
